Time;durP1;ratioP1;P1;durP2;ratioP2;P2;SDS_P1;SDS_P2;PMS_P1;PMS_P2;Temp;Humidity;BMP_temperature;BMP_pressure;BME280_temperature;BME280_humidity;BME280_pressure;Samples;Min_cycle;Max_cycle;Signal;HPM_P1;HPM_P2
2023/02/05 00:00:29;;;;;;;10.13;8.27;;;0.50;99.90;;;;;;5013677;28;20408;-67
2023/02/05 00:02:55;;;;;;;13.90;8.60;;;0.40;99.90;;;;;;5013415;28;20421;-67
2023/02/05 00:05:22;;;;;;;9.15;7.80;;;0.40;99.90;;;;;;5013899;28;20415;-68
2023/02/05 00:07:49;;;;;;;10.93;7.60;;;0.50;99.90;;;;;;5013831;28;20920;-68
2023/02/05 00:10:16;;;;;;;9.10;7.80;;;0.50;99.90;;;;;;5013496;28;20423;-67
2023/02/05 00:12:45;;;;;;;9.15;7.00;;;0.50;99.90;;;;;;5013210;28;20416;-67
2023/02/05 00:15:11;;;;;;;9.10;7.10;;;0.50;99.90;;;;;;5014286;28;20412;-66
2023/02/05 00:17:38;;;;;;;8.60;7.30;;;0.50;99.90;;;;;;5013551;28;20419;-66
2023/02/05 00:20:07;;;;;;;9.70;7.70;;;0.40;99.90;;;;;;5012423;28;20431;-67
2023/02/05 00:22:34;;;;;;;10.30;7.50;;;0.40;99.90;;;;;;5013662;28;20413;-67
2023/02/05 00:25:01;;;;;;;10.40;7.60;;;0.40;99.90;;;;;;5013270;28;20413;-66
2023/02/05 00:27:27;;;;;;;8.85;7.07;;;0.40;99.90;;;;;;5016091;28;20417;-67
2023/02/05 00:29:55;;;;;;;8.57;6.50;;;0.40;99.90;;;;;;5017175;28;20424;-67
2023/02/05 00:32:22;;;;;;;8.25;6.57;;;0.30;99.90;;;;;;5016440;28;20416;-67
2023/02/05 00:34:49;;;;;;;8.53;6.30;;;0.30;99.90;;;;;;5016770;28;20982;-68
2023/02/05 00:37:16;;;;;;;7.65;6.55;;;0.30;99.90;;;;;;5016400;28;20440;-67
2023/02/05 00:39:43;;;;;;;8.80;6.80;;;0.30;99.90;;;;;;5017000;28;20478;-66
2023/02/05 00:42:09;;;;;;;7.00;6.30;;;0.30;99.90;;;;;;5016145;28;20915;-67
2023/02/05 00:44:36;;;;;;;8.80;7.10;;;0.30;99.90;;;;;;5017211;28;20507;-67
2023/02/05 00:47:04;;;;;;;7.82;6.30;;;0.20;99.90;;;;;;5016811;28;20417;-68
2023/02/05 00:49:31;;;;;;;8.07;5.70;;;0.20;99.90;;;;;;5016478;28;20435;-67
2023/02/05 00:51:58;;;;;;;7.05;5.53;;;0.20;99.90;;;;;;5016116;28;20992;-68
2023/02/05 00:54:25;;;;;;;6.90;5.47;;;0.20;99.90;;;;;;5016439;28;20786;-68
2023/02/05 00:56:51;;;;;;;7.80;5.90;;;0.20;99.90;;;;;;5016171;28;20428;-68
2023/02/05 00:59:18;;;;;;;7.75;5.30;;;0.20;99.90;;;;;;5016227;28;20440;-65
2023/02/05 01:01:45;;;;;;;6.60;5.32;;;0.20;99.90;;;;;;5016138;28;20519;-67
2023/02/05 01:04:13;;;;;;;6.97;5.30;;;0.20;99.90;;;;;;5016318;28;20435;-67
2023/02/05 01:06:40;;;;;;;8.23;5.80;;;0.30;99.90;;;;;;5016607;28;20421;-67
2023/02/05 01:09:07;;;;;;;7.60;5.32;;;0.30;99.90;;;;;;5016087;28;20792;-67
2023/02/05 01:11:34;;;;;;;6.68;5.45;;;0.30;99.90;;;;;;5016143;28;20785;-67
2023/02/05 01:14:01;;;;;;;6.32;5.00;;;0.30;99.90;;;;;;5016655;28;20416;-67
2023/02/05 01:16:27;;;;;;;6.10;4.90;;;0.30;99.90;;;;;;5015835;28;20946;-67
2023/02/05 01:18:55;;;;;;;6.53;5.28;;;0.30;99.90;;;;;;5015782;28;20723;-66
2023/02/05 01:21:24;;;;;;;8.80;5.10;;;0.30;99.90;;;;;;5015948;28;20511;-66
2023/02/05 01:23:51;;;;;;;7.45;4.80;;;0.30;99.90;;;;;;5015442;28;20421;-67
2023/02/05 01:26:18;;;;;;;5.28;4.57;;;0.30;99.90;;;;;;5015731;28;20419;-66
2023/02/05 01:28:45;;;;;;;6.80;5.10;;;0.30;99.90;;;;;;5015561;28;20420;-66
2023/02/05 01:31:12;;;;;;;5.30;4.70;;;0.30;99.90;;;;;;5015590;28;20533;-66
2023/02/05 01:33:39;;;;;;;7.80;5.10;;;0.20;99.90;;;;;;5015678;28;20423;-67
2023/02/05 01:36:06;;;;;;;6.20;5.07;;;0.20;99.90;;;;;;5015949;28;20428;-67
2023/02/05 01:38:34;;;;;;;6.78;4.55;;;0.20;99.90;;;;;;5014766;28;20420;-66
2023/02/05 01:41:01;;;;;;;6.30;4.45;;;0.20;99.90;;;;;;5015060;28;20417;-66
2023/02/05 01:43:28;;;;;;;7.37;5.90;;;0.20;99.90;;;;;;5015134;28;20413;-64
2023/02/05 01:46:21;;;;;;;6.90;4.70;;;0.20;99.90;;;;;;5015159;28;20431;-67
2023/02/05 01:48:53;;;;;;;6.77;5.23;;;0.10;99.90;;;;;;5015167;28;20493;-66
2023/02/05 01:51:21;;;;;;;6.18;5.18;;;0.10;99.90;;;;;;5015123;28;20413;-66
2023/02/05 01:53:50;;;;;;;8.45;4.70;;;0.10;99.90;;;;;;5014366;28;20417;-67
2023/02/05 01:56:20;;;;;;;5.95;4.60;;;0.20;99.90;;;;;;5014492;28;20623;-66
2023/02/05 01:58:52;;;;;;;5.43;4.40;;;0.20;99.90;;;;;;5014671;28;20812;-65
2023/02/05 02:01:19;;;;;;;5.85;4.70;;;0.20;99.90;;;;;;5014748;28;20416;-66
2023/02/05 02:03:47;;;;;;;6.05;4.20;;;0.20;99.90;;;;;;5014539;28;20900;-65
2023/02/05 02:06:14;;;;;;;5.22;4.00;;;0.20;99.90;;;;;;5014630;28;20416;-66
2023/02/05 02:08:41;;;;;;;4.30;3.70;;;0.20;99.90;;;;;;5014636;28;20424;-67
2023/02/05 02:11:13;;;;;;;5.40;3.90;;;0.20;99.90;;;;;;5015166;28;20416;-67
2023/02/05 02:13:40;;;;;;;4.90;3.60;;;0.20;99.90;;;;;;5014435;28;20435;-68
2023/02/05 02:16:08;;;;;;;6.70;4.40;;;0.20;99.90;;;;;;5014299;28;20432;-67
2023/02/05 02:18:37;;;;;;;4.95;3.78;;;0.20;99.90;;;;;;5014097;28;20770;-68
2023/02/05 02:21:40;;;;;;;5.35;3.50;;;0.20;99.90;;;;;;5014451;28;20417;-67
2023/02/05 02:24:22;;;;;;;5.50;3.87;;;0.20;99.90;;;;;;5014516;28;20416;-66
2023/02/05 02:27:02;;;;;;;6.20;3.50;;;0.20;99.90;;;;;;5014245;28;20417;-66
2023/02/05 02:29:37;;;;;;;5.43;3.70;;;0.20;99.90;;;;;;5013825;28;20416;-66
2023/02/05 02:32:12;;;;;;;5.10;3.60;;;0.20;99.90;;;;;;5014027;28;20421;-67
2023/02/05 02:34:45;;;;;;;4.63;3.67;;;0.20;99.90;;;;;;5014069;28;20495;-67
2023/02/05 02:37:18;;;;;;;5.60;4.20;;;0.10;99.90;;;;;;5013848;28;20432;-66
2023/02/05 02:39:55;;;;;;;5.88;3.97;;;0.10;99.90;;;;;;5014734;28;20455;-67
2023/02/05 02:42:28;;;;;;;6.25;4.30;;;0.10;99.90;;;;;;5014071;28;20420;-67
2023/02/05 02:45:00;;;;;;;5.32;3.90;;;0.10;99.90;;;;;;5014523;28;20428;-68
2023/02/05 02:47:30;;;;;;;7.50;4.10;;;0.00;99.90;;;;;;5013791;28;20427;-68
2023/02/05 02:50:00;;;;;;;8.30;5.30;;;0.10;99.90;;;;;;5013186;28;20432;-67
2023/02/05 02:52:31;;;;;;;7.63;5.30;;;0.10;99.90;;;;;;5041555;23;20423;-65
2023/02/05 02:55:04;;;;;;;8.32;5.15;;;0.10;99.90;;;;;;5034180;28;20415;-64
2023/02/05 02:57:35;;;;;;;5.90;4.05;;;0.10;99.90;;;;;;5034269;28;20427;-65
2023/02/05 03:00:10;;;;;;;4.03;3.53;;;0.10;99.90;;;;;;5040680;28;20411;-64
2023/02/05 03:02:38;;;;;;;4.67;3.50;;;0.10;99.90;;;;;;5047152;28;20421;-64
2023/02/05 03:05:10;;;;;;;4.38;3.20;;;0.20;99.90;;;;;;5059246;28;20413;-64
2023/02/05 03:07:42;;;;;;;6.20;3.83;;;0.20;99.90;;;;;;5058804;28;20417;-65
2023/02/05 03:10:17;;;;;;;4.10;3.03;;;0.20;99.90;;;;;;5060326;28;20469;-64
2023/02/05 03:12:43;;;;;;;4.20;3.50;;;0.30;99.90;;;;;;5062689;28;20420;-64
2023/02/05 03:15:12;;;;;;;5.37;3.43;;;0.30;99.90;;;;;;5056918;28;20501;-64
2023/02/05 03:17:40;;;;;;;5.40;3.33;;;0.30;99.90;;;;;;5055837;28;20528;-65
2023/02/05 03:20:11;;;;;;;3.88;3.55;;;0.30;99.90;;;;;;5055174;28;20417;-64
2023/02/05 03:22:37;;;;;;;4.88;3.38;;;0.40;99.90;;;;;;5058192;28;20782;-63
2023/02/05 03:25:05;;;;;;;4.80;3.60;;;0.40;99.90;;;;;;5060746;28;20414;-65
2023/02/05 03:27:32;;;;;;;4.40;3.50;;;0.40;99.90;;;;;;5056805;28;20412;-64
2023/02/05 03:29:59;;;;;;;4.20;3.20;;;0.40;99.90;;;;;;5062472;28;20421;-64
2023/02/05 03:32:40;;;;;;;6.10;3.58;;;0.50;99.90;;;;;;5058549;28;20414;-65
2023/02/05 03:35:24;;;;;;;5.05;3.45;;;0.50;99.90;;;;;;5057456;28;20413;-64
2023/02/05 03:38:05;;;;;;;5.70;3.50;;;0.50;99.90;;;;;;5054263;28;20425;-65
2023/02/05 03:40:38;;;;;;;3.50;3.00;;;0.50;99.90;;;;;;5055382;28;20417;-64
2023/02/05 03:43:13;;;;;;;6.50;3.60;;;0.60;99.90;;;;;;5053779;28;20417;-64
2023/02/05 03:45:51;;;;;;;4.50;3.60;;;0.60;99.90;;;;;;5053703;28;20504;-65
2023/02/05 03:48:37;;;;;;;3.83;3.13;;;0.60;99.90;;;;;;5056286;28;20445;-64
2023/02/05 03:51:18;;;;;;;3.40;2.80;;;0.70;99.90;;;;;;5054863;28;20425;-64
2023/02/05 03:53:53;;;;;;;4.40;3.20;;;0.70;99.90;;;;;;5055318;28;20424;-64
2023/02/05 03:56:25;;;;;;;4.93;3.30;;;0.80;99.90;;;;;;5054899;28;20417;-64
2023/02/05 03:58:56;;;;;;;5.60;3.33;;;0.80;99.90;;;;;;5055787;28;20425;-65
2023/02/05 04:01:24;;;;;;;6.63;3.72;;;0.80;99.90;;;;;;5055351;28;20432;-64
2023/02/05 04:03:52;;;;;;;3.63;3.00;;;0.80;99.90;;;;;;5056316;28;20889;-64
2023/02/05 04:06:19;;;;;;;4.82;3.00;;;0.80;99.90;;;;;;5053146;28;20789;-65
2023/02/05 04:11:08;;;;;;;4.47;2.95;;;0.80;99.90;;;;;;5111135;27;20342;-64
2023/02/05 04:13:35;;;;;;;4.72;3.30;;;0.80;99.90;;;;;;5110410;28;20413;-64
2023/02/05 04:16:01;;;;;;;4.20;3.30;;;0.80;99.90;;;;;;5110679;28;20436;-65
2023/02/05 04:18:28;;;;;;;4.22;3.10;;;0.80;99.90;;;;;;5110456;28;20408;-64
2023/02/05 04:20:55;;;;;;;4.45;3.45;;;0.80;99.90;;;;;;5110654;28;20408;-64
2023/02/05 04:23:22;;;;;;;4.15;3.28;;;0.80;99.90;;;;;;5111811;28;20723;-63
2023/02/05 04:25:52;;;;;;;4.88;3.38;;;0.80;99.90;;;;;;5110587;28;20427;-64
2023/02/05 04:28:21;;;;;;;4.15;3.38;;;0.80;99.90;;;;;;5110205;28;20881;-65
2023/02/05 04:30:48;;;;;;;3.90;3.15;;;0.90;99.90;;;;;;5110663;28;20508;-64
2023/02/05 04:33:14;;;;;;;3.90;2.90;;;0.90;99.90;;;;;;5110177;28;20889;-64
2023/02/05 04:35:41;;;;;;;3.38;2.60;;;0.90;99.90;;;;;;5110062;28;20420;-65
2023/02/05 04:38:08;;;;;;;3.40;2.90;;;1.00;99.90;;;;;;5114099;28;20405;-64
2023/02/05 04:40:35;;;;;;;4.85;3.05;;;1.00;99.90;;;;;;5122376;28;20406;-65
2023/02/05 04:43:02;;;;;;;3.77;2.90;;;1.10;99.90;;;;;;5110743;28;20420;-65
2023/02/05 04:45:32;;;;;;;3.60;2.80;;;1.10;99.90;;;;;;5110334;28;20416;-65
2023/02/05 04:47:59;;;;;;;5.57;2.90;;;1.20;99.90;;;;;;5110768;28;20458;-64
2023/02/05 04:50:26;;;;;;;3.90;3.10;;;1.20;99.90;;;;;;5109996;28;20509;-65
2023/02/05 04:52:53;;;;;;;2.90;2.60;;;1.30;99.90;;;;;;5109825;28;20777;-65
2023/02/05 04:55:20;;;;;;;4.13;3.15;;;1.30;99.90;;;;;;5109717;28;20413;-64
2023/02/05 04:57:46;;;;;;;4.40;2.70;;;1.30;99.90;;;;;;5113703;28;20413;-65
2023/02/05 05:00:14;;;;;;;3.63;3.00;;;1.40;99.90;;;;;;5113445;28;20486;-60
2023/02/05 05:02:42;;;;;;;3.40;3.00;;;1.40;99.90;;;;;;5109931;28;20421;-65
2023/02/05 05:05:10;;;;;;;3.90;2.67;;;1.40;99.90;;;;;;5110017;28;20421;-65
2023/02/05 05:07:37;;;;;;;3.50;2.93;;;1.40;99.90;;;;;;5110113;28;20440;-64
2023/02/05 05:10:06;;;;;;;6.88;3.80;;;1.50;99.90;;;;;;5121939;28;20423;-64
2023/02/05 05:12:33;;;;;;;3.72;2.83;;;1.50;99.90;;;;;;5129827;28;20403;-64
2023/02/05 05:15:00;;;;;;;3.60;2.85;;;1.50;99.90;;;;;;5130295;28;20887;-64
2023/02/05 05:17:27;;;;;;;3.67;3.10;;;1.50;99.90;;;;;;5137424;28;20407;-64
2023/02/05 05:19:55;;;;;;;3.90;3.20;;;1.60;99.90;;;;;;5130441;28;20419;-64
2023/02/05 05:22:22;;;;;;;3.42;2.70;;;1.60;99.90;;;;;;5116212;28;20779;-64
2023/02/05 05:24:48;;;;;;;3.80;3.20;;;1.60;99.90;;;;;;5117128;28;20795;-64
2023/02/05 05:27:17;;;;;;;4.45;2.90;;;1.60;99.90;;;;;;5116182;28;20416;-64
2023/02/05 05:29:45;;;;;;;4.20;2.70;;;1.60;99.90;;;;;;5116036;28;20473;-65
2023/02/05 05:32:12;;;;;;;4.35;3.10;;;1.60;99.90;;;;;;5117154;28;20443;-64
2023/02/05 05:34:39;;;;;;;3.85;3.00;;;1.60;99.90;;;;;;5119441;28;20408;-64
2023/02/05 05:37:07;;;;;;;3.57;2.90;;;1.60;99.90;;;;;;5117995;28;20419;-65
2023/02/05 05:45:02;;;;;;;3.35;2.90;;;1.60;99.90;;;;;;5115550;28;20388;-63
2023/02/05 05:47:28;;;;;;;2.90;2.60;;;1.60;99.90;;;;;;5116273;28;20412;-63
2023/02/05 05:49:55;;;;;;;4.30;2.83;;;1.60;99.90;;;;;;5116455;28;20424;-63
2023/02/05 05:52:23;;;;;;;4.00;2.90;;;1.60;99.90;;;;;;5116203;28;20482;-65
2023/02/05 05:54:50;;;;;;;3.92;3.10;;;1.60;99.90;;;;;;5115704;28;20915;-64
2023/02/05 05:57:17;;;;;;;3.28;2.97;;;1.60;99.90;;;;;;5115571;28;20409;-65
2023/02/05 05:59:44;;;;;;;3.83;3.20;;;1.60;99.90;;;;;;5115461;28;21073;-64
2023/02/05 06:02:10;;;;;;;4.10;2.90;;;1.70;99.90;;;;;;5115199;28;20907;-65
2023/02/05 06:04:37;;;;;;;3.50;2.90;;;1.70;99.90;;;;;;5115449;28;20515;-64
2023/02/05 06:07:04;;;;;;;4.28;3.38;;;1.70;99.90;;;;;;5115456;28;20419;-64
2023/02/05 06:09:32;;;;;;;3.60;2.60;;;1.70;99.90;;;;;;5115279;28;20828;-65
2023/02/05 06:11:59;;;;;;;3.70;3.00;;;1.70;99.90;;;;;;5115130;28;20860;-66
2023/02/05 06:14:26;;;;;;;3.60;2.83;;;1.80;99.90;;;;;;5114911;28;20408;-62
2023/02/05 06:16:54;;;;;;;4.80;3.10;;;1.80;99.90;;;;;;5115068;28;20408;-64
2023/02/05 06:19:21;;;;;;;4.28;2.80;;;1.80;99.90;;;;;;5115302;28;20412;-65
2023/02/05 06:21:48;;;;;;;4.28;3.00;;;1.80;99.90;;;;;;5115436;28;20404;-65
2023/02/05 06:24:15;;;;;;;4.00;2.67;;;1.80;99.90;;;;;;5114725;28;20423;-65
2023/02/05 06:26:43;;;;;;;3.95;2.70;;;1.80;99.90;;;;;;5115294;28;20914;-64
2023/02/05 06:29:09;;;;;;;2.72;2.30;;;1.80;99.90;;;;;;5114763;28;20419;-64
2023/02/05 06:31:36;;;;;;;4.30;2.72;;;1.80;99.90;;;;;;5114887;28;20420;-64
2023/02/05 06:34:03;;;;;;;3.20;2.70;;;1.70;99.90;;;;;;5113640;28;20412;-65
2023/02/05 06:36:30;;;;;;;3.03;2.53;;;1.80;99.90;;;;;;5114628;28;20412;-64
2023/02/05 06:38:57;;;;;;;3.30;2.50;;;1.80;99.90;;;;;;5115339;28;20416;-64
2023/02/05 06:41:23;;;;;;;3.63;3.08;;;1.80;99.90;;;;;;5115526;28;20419;-65
2023/02/05 06:43:52;;;;;;;4.28;3.05;;;1.80;99.90;;;;;;5114509;28;20900;-64
2023/02/05 06:46:18;;;;;;;4.20;2.70;;;1.80;99.90;;;;;;5114623;28;20902;-64
2023/02/05 06:48:45;;;;;;;3.35;2.90;;;1.80;99.90;;;;;;5114232;28;20923;-64
2023/02/05 06:51:12;;;;;;;5.05;2.80;;;1.80;99.90;;;;;;5114509;28;20455;-64
2023/02/05 06:53:39;;;;;;;3.78;2.90;;;1.80;99.90;;;;;;5115292;28;20949;-64
2023/02/05 06:56:06;;;;;;;5.78;3.08;;;1.90;99.90;;;;;;5114819;28;20416;-64
2023/02/05 06:58:33;;;;;;;3.85;3.00;;;1.90;99.90;;;;;;5116296;28;20418;-64
2023/02/05 07:01:01;;;;;;;2.90;2.60;;;1.90;99.90;;;;;;5114842;28;20419;-63
2023/02/05 07:03:28;;;;;;;3.58;3.28;;;1.90;99.90;;;;;;5113968;28;20408;-64
2023/02/05 07:05:55;;;;;;;3.67;2.83;;;2.00;99.90;;;;;;5115195;28;20412;-65
2023/02/05 07:08:22;;;;;;;3.40;2.92;;;2.00;99.90;;;;;;5125655;28;20752;-66
2023/02/05 07:10:49;;;;;;;3.97;3.33;;;1.90;99.90;;;;;;5119312;28;20443;-64
2023/02/05 07:13:15;;;;;;;4.20;3.00;;;1.90;99.90;;;;;;5114110;28;20408;-65
2023/02/05 07:15:43;;;;;;;3.22;2.85;;;1.90;99.90;;;;;;5114187;28;20412;-64
2023/02/05 07:18:11;;;;;;;3.25;2.88;;;2.00;99.90;;;;;;5114170;28;20515;-64
2023/02/05 07:20:38;;;;;;;3.95;2.83;;;2.00;99.90;;;;;;5113522;28;20412;-64
2023/02/05 07:23:05;;;;;;;3.47;3.10;;;2.00;99.90;;;;;;5114529;28;20408;-65
2023/02/05 07:25:35;;;;;;;3.40;3.00;;;2.00;99.90;;;;;;5115521;28;20887;-65
2023/02/05 07:28:01;;;;;;;3.47;2.97;;;2.10;99.90;;;;;;5114734;28;20420;-65
2023/02/05 07:30:28;;;;;;;3.75;3.00;;;2.10;99.90;;;;;;5115385;28;20427;-64
2023/02/05 07:32:55;;;;;;;5.90;3.30;;;2.10;99.90;;;;;;5111953;28;20759;-64
2023/02/05 07:35:23;;;;;;;4.60;3.10;;;2.20;99.90;;;;;;5102522;28;20416;-64
2023/02/05 07:37:50;;;;;;;4.07;3.20;;;2.20;99.90;;;;;;5109393;28;20434;-66
2023/02/05 07:40:17;;;;;;;4.43;3.15;;;2.30;99.90;;;;;;5095542;28;20426;-64
2023/02/05 07:42:44;;;;;;;4.50;3.00;;;2.30;99.90;;;;;;5094785;28;20421;-65
2023/02/05 07:45:10;;;;;;;4.95;3.42;;;2.40;99.90;;;;;;5097274;28;20441;-65
2023/02/05 07:47:37;;;;;;;4.30;2.90;;;2.40;99.90;;;;;;5107418;28;20432;-65
2023/02/05 07:50:05;;;;;;;3.90;2.90;;;2.40;99.90;;;;;;5095843;28;21100;-64
2023/02/05 07:52:33;;;;;;;3.90;3.20;;;2.50;99.90;;;;;;5101711;28;20430;-65
2023/02/05 07:55:00;;;;;;;4.70;3.50;;;2.60;99.90;;;;;;5101799;28;20430;-64
2023/02/05 07:57:27;;;;;;;4.20;3.10;;;2.60;99.90;;;;;;5101173;28;20425;-64
2023/02/05 07:59:53;;;;;;;3.90;3.20;;;2.70;99.90;;;;;;5094987;28;20885;-64
2023/02/05 08:02:20;;;;;;;4.97;3.50;;;2.80;99.90;;;;;;5093991;28;20436;-63
2023/02/05 08:04:47;;;;;;;5.90;3.33;;;2.80;99.90;;;;;;5099712;28;20862;-64
2023/02/05 08:07:14;;;;;;;4.50;3.20;;;2.90;99.90;;;;;;5109592;28;20426;-69
2023/02/05 08:09:42;;;;;;;5.53;3.17;;;3.00;99.90;;;;;;5094907;28;20429;-66
2023/02/05 08:12:09;;;;;;;3.70;2.92;;;3.10;99.90;;;;;;5099083;28;20830;-65
2023/02/05 08:14:36;;;;;;;5.15;3.13;;;3.10;99.90;;;;;;5106132;28;20456;-64
2023/02/05 08:17:04;;;;;;;3.80;3.00;;;3.20;99.90;;;;;;5109601;28;20434;-65
2023/02/05 08:19:31;;;;;;;3.83;3.00;;;3.30;99.90;;;;;;5106329;28;20426;-66
2023/02/05 08:21:58;;;;;;;5.18;3.22;;;3.30;99.90;;;;;;5112210;28;20409;-63
2023/02/05 08:24:25;;;;;;;3.40;3.00;;;3.30;99.90;;;;;;5113789;28;20485;-64
2023/02/05 08:26:53;;;;;;;4.90;3.20;;;3.40;99.90;;;;;;5111627;28;20747;-64
2023/02/05 08:29:20;;;;;;;2.95;2.65;;;3.40;99.90;;;;;;5104522;28;20515;-65
2023/02/05 08:31:47;;;;;;;4.90;3.20;;;3.50;99.90;;;;;;5097643;28;20428;-65
2023/02/05 08:34:15;;;;;;;4.80;3.00;;;3.50;99.90;;;;;;5103572;28;20458;-64
2023/02/05 08:36:42;;;;;;;4.18;2.95;;;3.50;99.90;;;;;;5102377;28;20428;-66
2023/02/05 08:39:09;;;;;;;4.00;2.80;;;3.50;99.90;;;;;;5099601;28;20926;-65
2023/02/05 08:41:36;;;;;;;3.70;3.35;;;3.50;99.90;;;;;;5103919;28;20880;-65
2023/02/05 08:44:05;;;;;;;4.75;3.35;;;3.50;99.90;;;;;;5112851;28;20408;-64
2023/02/05 08:46:32;;;;;;;4.28;2.97;;;3.60;99.90;;;;;;5094834;28;20421;-66
2023/02/05 08:48:59;;;;;;;4.10;3.00;;;3.60;99.90;;;;;;5095579;28;20513;-64
2023/02/05 08:51:26;;;;;;;4.45;3.05;;;3.60;99.90;;;;;;5098620;28;20923;-65
2023/02/05 08:53:54;;;;;;;4.03;3.63;;;3.60;99.90;;;;;;5098380;28;20454;-64
2023/02/05 08:56:21;;;;;;;4.68;3.50;;;3.60;99.90;;;;;;5094974;28;20781;-64
2023/02/05 08:58:48;;;;;;;4.78;3.50;;;3.60;99.90;;;;;;5096852;28;20418;-63
2023/02/05 09:01:17;;;;;;;5.82;3.60;;;3.70;99.90;;;;;;5096170;28;20412;-65
2023/02/05 09:03:45;;;;;;;4.78;3.33;;;3.70;99.90;;;;;;5094965;28;20930;-64
2023/02/05 09:06:13;;;;;;;3.95;3.30;;;3.80;99.90;;;;;;5095483;28;20425;-65
2023/02/05 09:08:40;;;;;;;5.18;4.00;;;3.80;99.90;;;;;;5096841;28;20418;-65
2023/02/05 09:11:07;;;;;;;5.18;3.90;;;3.70;99.90;;;;;;5096588;28;20519;-65
2023/02/05 09:13:35;;;;;;;4.15;3.75;;;3.70;99.90;;;;;;5096787;28;20489;-66
2023/02/05 09:16:01;;;;;;;4.03;3.60;;;3.70;99.90;;;;;;5095193;28;20783;-65
2023/02/05 09:18:29;;;;;;;5.10;4.30;;;3.60;99.90;;;;;;5095822;28;20416;-65
2023/02/05 09:20:56;;;;;;;5.15;4.25;;;3.60;99.90;;;;;;5096527;28;20441;-66
2023/02/05 09:23:23;;;;;;;5.85;4.93;;;3.60;99.90;;;;;;5096078;28;20401;-66
2023/02/05 09:25:50;;;;;;;7.90;4.80;;;3.60;99.90;;;;;;5096891;28;20517;-65
2023/02/05 09:28:17;;;;;;;5.50;4.15;;;3.60;99.90;;;;;;5096058;28;20784;-66
2023/02/05 09:30:45;;;;;;;5.72;3.70;;;3.60;99.90;;;;;;5100031;28;20428;-65
2023/02/05 09:33:13;;;;;;;9.20;4.10;;;3.60;99.90;;;;;;5113648;28;20784;-65
2023/02/05 09:35:42;;;;;;;5.20;3.67;;;3.70;99.90;;;;;;5116308;28;20780;-65
2023/02/05 09:38:12;;;;;;;4.65;4.03;;;3.70;99.90;;;;;;5098808;28;20427;-64
2023/02/05 09:40:44;;;;;;;5.47;4.22;;;3.70;99.90;;;;;;5115922;28;20415;-65
2023/02/05 09:43:26;;;;;;;6.83;4.53;;;3.70;99.90;;;;;;5104722;28;20777;-65
2023/02/05 09:45:58;;;;;;;5.82;4.53;;;3.70;99.90;;;;;;5095282;28;20418;-67
2023/02/05 09:48:48;;;;;;;4.78;3.90;;;3.70;99.90;;;;;;5095848;28;20418;-65
2023/02/05 09:51:20;;;;;;;5.80;4.30;;;3.70;99.90;;;;;;5095460;28;20426;-65
2023/02/05 09:53:52;;;;;;;6.18;4.45;;;3.60;99.90;;;;;;5098915;28;20915;-66
2023/02/05 09:56:19;;;;;;;6.47;4.45;;;3.60;99.90;;;;;;5109412;28;20413;-64
2023/02/05 09:58:49;;;;;;;6.00;4.28;;;3.60;99.90;;;;;;5101949;28;20789;-65
2023/02/05 10:01:23;;;;;;;5.30;4.20;;;3.60;99.90;;;;;;5105873;28;20414;-66
2023/02/05 10:03:55;;;;;;;5.43;4.10;;;3.60;99.90;;;;;;5095326;28;20445;-65
2023/02/05 10:06:42;;;;;;;8.00;4.57;;;3.60;99.90;;;;;;5094207;28;20421;-65
2023/02/05 10:09:22;;;;;;;6.43;4.70;;;3.60;99.90;;;;;;5100990;28;20427;-65
2023/02/05 10:11:54;;;;;;;7.05;4.97;;;3.60;99.90;;;;;;5115063;28;20504;-66
2023/02/05 10:14:33;;;;;;;6.35;4.63;;;3.60;99.90;;;;;;5096409;28;20410;-66
2023/02/05 10:17:14;;;;;;;6.18;4.80;;;3.60;99.90;;;;;;5096266;28;20433;-66
2023/02/05 10:20:07;;;;;;;6.85;4.78;;;3.70;99.90;;;;;;5095028;28;20802;-67
2023/02/05 10:22:46;;;;;;;5.20;4.60;;;3.70;99.90;;;;;;5101091;28;20406;-65
2023/02/05 10:25:41;;;;;;;6.20;4.68;;;3.70;99.90;;;;;;5101316;28;20815;-66
2023/02/05 10:28:20;;;;;;;6.72;4.80;;;3.70;99.90;;;;;;5101561;28;20428;-65
2023/02/05 10:30:55;;;;;;;6.05;4.95;;;3.70;99.90;;;;;;5099661;28;20413;-65
2023/02/05 10:33:34;;;;;;;6.43;4.40;;;3.70;99.90;;;;;;5099669;28;20765;-65
2023/02/05 10:36:05;;;;;;;6.05;4.70;;;3.70;99.90;;;;;;5104461;28;20421;-65
2023/02/05 10:38:40;;;;;;;5.53;4.93;;;3.70;99.90;;;;;;5103489;28;20409;-66
2023/02/05 10:41:14;;;;;;;8.48;5.90;;;3.70;99.90;;;;;;5122942;28;20761;-66
2023/02/05 10:43:46;;;;;;;5.05;4.25;;;3.80;99.90;;;;;;5110909;28;20922;-66
2023/02/05 10:46:13;;;;;;;6.15;5.00;;;3.80;99.90;;;;;;5107204;28;20454;-65
2023/02/05 10:48:45;;;;;;;8.07;5.10;;;3.90;99.90;;;;;;5105620;28;20430;-65
2023/02/05 10:51:15;;;;;;;7.57;5.05;;;3.90;99.90;;;;;;5099393;28;20433;-65
2023/02/05 10:53:43;;;;;;;6.55;4.55;;;3.90;99.90;;;;;;5099105;28;20489;-66
2023/02/05 10:56:16;;;;;;;8.65;4.95;;;3.90;99.90;;;;;;5097274;28;20421;-66
2023/02/05 10:58:52;;;;;;;6.95;5.05;;;4.00;99.90;;;;;;5095511;28;20425;-66
2023/02/05 11:01:21;;;;;;;7.25;5.25;;;4.10;99.90;;;;;;5094807;28;20428;-66
2023/02/05 11:03:58;;;;;;;6.43;4.47;;;4.10;99.90;;;;;;5094796;28;20413;-66
2023/02/05 11:06:27;;;;;;;8.00;5.20;;;4.10;99.90;;;;;;5101709;28;20436;-63
2023/02/05 11:08:55;;;;;;;7.30;5.47;;;4.10;99.90;;;;;;5114593;28;20412;-65
2023/02/05 11:11:26;;;;;;;6.50;5.00;;;4.10;99.90;;;;;;5094536;28;20440;-64
2023/02/05 11:13:57;;;;;;;7.15;5.63;;;4.20;99.90;;;;;;5093949;28;20406;-66
2023/02/05 11:16:34;;;;;;;5.80;4.80;;;4.20;99.90;;;;;;5093796;28;20426;-66
2023/02/05 11:19:01;;;;;;;10.47;5.70;;;4.20;99.90;;;;;;5092812;28;20515;-66
2023/02/05 11:21:47;;;;;;;7.40;5.47;;;4.20;99.90;;;;;;5094145;28;20422;-67
2023/02/05 11:24:26;;;;;;;7.75;5.40;;;4.30;99.90;;;;;;5094068;28;20406;-67
2023/02/05 11:27:12;;;;;;;6.60;5.70;;;4.40;99.90;;;;;;5094562;28;20418;-66
2023/02/05 11:29:39;;;;;;;7.95;6.10;;;4.50;99.90;;;;;;5096249;28;20522;-68
2023/02/05 11:32:19;;;;;;;8.68;5.63;;;4.60;99.90;;;;;;5109826;28;20879;-67
2023/02/05 11:34:46;;;;;;;7.05;5.70;;;4.70;99.90;;;;;;5101280;28;20422;-66
2023/02/05 11:37:17;;;;;;;6.80;5.50;;;4.70;99.90;;;;;;5100385;28;20420;-68
2023/02/05 11:39:46;;;;;;;8.65;5.45;;;4.80;99.90;;;;;;5102731;28;20471;-68
2023/02/05 11:42:20;;;;;;;10.23;5.90;;;4.80;99.90;;;;;;5102083;28;20451;-67
2023/02/05 11:44:53;;;;;;;8.50;5.88;;;4.90;99.90;;;;;;5103373;28;20425;-68
2023/02/05 11:47:26;;;;;;;6.65;5.53;;;4.90;99.90;;;;;;5105836;28;20474;-68
2023/02/05 11:49:53;;;;;;;7.80;5.97;;;5.00;99.90;;;;;;5118642;28;20893;-68
2023/02/05 11:52:27;;;;;;;6.57;5.40;;;4.90;99.90;;;;;;5116875;28;20424;-68
2023/02/05 11:54:55;;;;;;;8.67;5.70;;;4.90;99.90;;;;;;5120029;28;20400;-67
2023/02/05 11:57:34;;;;;;;8.63;6.25;;;4.90;99.90;;;;;;5117434;28;20534;-67
2023/02/05 12:00:03;;;;;;;10.15;5.90;;;4.80;99.90;;;;;;5117784;28;20448;-67
2023/02/05 12:02:35;;;;;;;8.30;5.97;;;4.80;99.90;;;;;;5116378;28;20404;-68
2023/02/05 12:05:12;;;;;;;7.10;5.30;;;4.70;99.90;;;;;;5123557;28;20400;-66
2023/02/05 12:07:49;;;;;;;8.25;5.65;;;4.60;99.90;;;;;;5124475;28;20427;-67
2023/02/05 12:10:25;;;;;;;7.85;5.70;;;4.60;99.90;;;;;;5124461;28;20483;-67
2023/02/05 12:13:03;;;;;;;7.32;5.90;;;4.60;99.90;;;;;;5107330;28;20484;-68
2023/02/05 12:15:36;;;;;;;7.85;5.80;;;4.50;99.90;;;;;;5107156;28;20803;-68
2023/02/05 12:18:15;;;;;;;8.88;5.70;;;4.40;99.90;;;;;;5097386;28;20413;-68
2023/02/05 12:20:50;;;;;;;6.78;5.55;;;4.40;99.90;;;;;;5095568;28;20493;-70
2023/02/05 12:23:36;;;;;;;7.03;5.40;;;4.30;99.90;;;;;;5095773;28;20882;-68
2023/02/05 12:26:24;;;;;;;7.30;5.78;;;4.20;99.90;;;;;;5096754;28;20422;-67
2023/02/05 12:29:06;;;;;;;9.97;5.80;;;4.20;99.90;;;;;;5116057;28;20444;-67
2023/02/05 12:31:46;;;;;;;7.95;5.38;;;4.20;99.90;;;;;;5113282;28;20435;-67
2023/02/05 12:34:26;;;;;;;9.20;5.50;;;4.20;99.90;;;;;;5100268;28;20467;-68
2023/02/05 12:37:07;;;;;;;7.50;5.30;;;4.20;99.90;;;;;;5099393;28;20449;-66
2023/02/05 12:39:44;;;;;;;8.07;5.20;;;4.20;99.90;;;;;;5100083;28;20527;-67
2023/02/05 12:42:25;;;;;;;8.50;5.27;;;4.20;99.90;;;;;;5100696;28;20426;-67
2023/02/05 12:45:07;;;;;;;7.60;5.80;;;4.10;99.90;;;;;;5100597;28;20477;-67
2023/02/05 12:47:50;;;;;;;8.10;6.90;;;4.10;99.90;;;;;;5111979;28;20416;-67
2023/02/05 12:50:45;;;;;;;7.68;6.10;;;4.10;99.90;;;;;;5119434;28;20408;-68
2023/02/05 12:53:27;;;;;;;9.27;6.03;;;4.10;99.90;;;;;;5087482;28;20503;-68
2023/02/05 12:56:15;;;;;;;9.05;6.28;;;4.20;99.90;;;;;;5097526;28;20452;-67
2023/02/05 12:58:47;;;;;;;8.70;6.47;;;4.30;99.90;;;;;;5096674;28;20431;-69
2023/02/05 13:01:21;;;;;;;8.73;6.15;;;4.30;99.90;;;;;;5100272;28;20430;-66
2023/02/05 13:03:51;;;;;;;7.63;5.80;;;4.40;99.90;;;;;;5106248;28;20768;-66
2023/02/05 13:06:24;;;;;;;8.35;6.30;;;4.40;99.90;;;;;;5108053;28;20532;-67
2023/02/05 13:08:52;;;;;;;8.70;6.17;;;4.40;99.90;;;;;;5108045;28;20429;-67
2023/02/05 13:11:24;;;;;;;6.60;5.47;;;4.50;99.90;;;;;;5106426;28;20966;-68
2023/02/05 13:14:01;;;;;;;8.80;5.65;;;4.40;99.90;;;;;;5114266;28;20803;-68
2023/02/05 13:16:37;;;;;;;7.78;5.72;;;4.40;99.90;;;;;;5099916;28;20429;-68
2023/02/05 13:19:18;;;;;;;7.30;6.40;;;4.40;99.90;;;;;;5116379;28;20416;-67
2023/02/05 13:30:16;;;;;;;8.98;6.35;;;4.50;99.90;;;;;;5096439;28;20885;-67